Terminal Aerodrome Forecast
Issued by NWS Tallahassee, FL

Home | Current Version | Previous Version | Text Only | Print | Product List | Glossary On
Versions: 1 2 3 4 5 6 7 8 9 10 11 12 13 14 15 16 17 18 19 20 21
000
FTUS42 KTAE 212339
TAFTLH
TAF
KTLH 212339Z 2200/2224 02008KT 5SM -RA BKN025
     FM220300 14005KT 5SM -RA BR OVC015
     FM221100 11003KT 3SM RA BR OVC007
     FM221600 11009KT P6SM VCSH OVC015
     FM222000 11009KT P6SM SCT025=

USA.gov is the U.S. government's official web portal to all federal, state and local government web resources and services.